sensor_id;sensor_type;location;lat;lon;timestamp;pressure;altitude;pressure_sealevel;temperature;humidity
30724;BME280;17473;52.286;20.930;2023-07-31T00:02:00;99621.88;;;20.45;79.94
30724;BME280;17473;52.286;20.930;2023-07-31T00:04:27;99622.97;;;20.35;80.91
30724;BME280;17473;52.286;20.930;2023-07-31T00:06:54;99636.31;;;20.38;80.46
30724;BME280;17473;52.286;20.930;2023-07-31T00:09:21;99633.66;;;20.36;79.98
30724;BME280;17473;52.286;20.930;2023-07-31T00:11:48;99632.84;;;20.31;80.13
30724;BME280;17473;52.286;20.930;2023-07-31T00:14:15;99639.41;;;20.14;81.11
30724;BME280;17473;52.286;20.930;2023-07-31T00:16:42;99633.88;;;20.24;80.37
30724;BME280;17473;52.286;20.930;2023-07-31T00:19:09;99633.09;;;20.17;80.34
30724;BME280;17473;52.286;20.930;2023-07-31T00:21:36;99635.22;;;19.98;81.45
30724;BME280;17473;52.286;20.930;2023-07-31T00:24:04;99631.78;;;19.88;81.74
30724;BME280;17473;52.286;20.930;2023-07-31T00:26:31;99637.09;;;19.91;82.07
30724;BME280;17473;52.286;20.930;2023-07-31T00:28:58;99643.34;;;19.92;81.67
30724;BME280;17473;52.286;20.930;2023-07-31T00:31:25;99631.78;;;19.88;82.03
30724;BME280;17473;52.286;20.930;2023-07-31T00:33:52;99639.75;;;19.94;82.01
30724;BME280;17473;52.286;20.930;2023-07-31T00:36:19;99640.66;;;19.93;81.57
30724;BME280;17473;52.286;20.930;2023-07-31T00:38:46;99639.00;;;19.81;82.49
30724;BME280;17473;52.286;20.930;2023-07-31T00:41:13;99632.63;;;19.92;81.96
30724;BME280;17473;52.286;20.930;2023-07-31T00:43:40;99623.63;;;19.96;80.74
30724;BME280;17473;52.286;20.930;2023-07-31T00:46:07;99632.69;;;19.87;81.72
30724;BME280;17473;52.286;20.930;2023-07-31T00:48:35;99633.53;;;19.91;81.55
30724;BME280;17473;52.286;20.930;2023-07-31T00:51:03;99633.66;;;19.81;81.53
30724;BME280;17473;52.286;20.930;2023-07-31T00:53:30;99632.06;;;19.71;82.56
30724;BME280;17473;52.286;20.930;2023-07-31T00:55:58;99626.75;;;19.65;82.79
30724;BME280;17473;52.286;20.930;2023-07-31T00:58:25;99621.34;;;19.71;82.94
30724;BME280;17473;52.286;20.930;2023-07-31T01:00:52;99625.78;;;19.72;82.77
30724;BME280;17473;52.286;20.930;2023-07-31T01:03:19;99616.88;;;19.70;82.57
30724;BME280;17473;52.286;20.930;2023-07-31T01:09:03;99632.94;;;19.70;82.48
30724;BME280;17473;52.286;20.930;2023-07-31T01:11:35;99625.00;;;19.65;82.63
30724;BME280;17473;52.286;20.930;2023-07-31T01:14:05;99631.34;;;19.58;83.14
30724;BME280;17473;52.286;20.930;2023-07-31T01:16:32;99635.06;;;19.48;83.99
30724;BME280;17473;52.286;20.930;2023-07-31T01:18:59;99632.31;;;19.51;83.81
30724;BME280;17473;52.286;20.930;2023-07-31T01:24:23;99631.44;;;19.53;83.35
30724;BME280;17473;52.286;20.930;2023-07-31T01:30:05;99634.44;;;19.29;84.94
30724;BME280;17473;52.286;20.930;2023-07-31T01:33:05;99633.53;;;19.31;85.02
30724;BME280;17473;52.286;20.930;2023-07-31T01:35:35;99639.03;;;19.19;85.64
30724;BME280;17473;52.286;20.930;2023-07-31T01:38:03;99638.09;;;19.21;85.60
30724;BME280;17473;52.286;20.930;2023-07-31T01:40:31;99638.94;;;19.25;85.60
30724;BME280;17473;52.286;20.930;2023-07-31T01:42:58;99639.81;;;19.27;85.47
30724;BME280;17473;52.286;20.930;2023-07-31T01:45:25;99640.88;;;19.15;85.61
30724;BME280;17473;52.286;20.930;2023-07-31T01:47:53;99639.16;;;19.10;86.36
30724;BME280;17473;52.286;20.930;2023-07-31T01:50:20;99636.50;;;19.08;86.69
30724;BME280;17473;52.286;20.930;2023-07-31T01:52:54;99640.00;;;19.13;86.79
30724;BME280;17473;52.286;20.930;2023-07-31T01:55:21;99639.09;;;19.14;86.49
30724;BME280;17473;52.286;20.930;2023-07-31T01:57:48;99648.06;;;19.12;86.65
30724;BME280;17473;52.286;20.930;2023-07-31T02:00:15;99650.94;;;18.91;87.66
30724;BME280;17473;52.286;20.930;2023-07-31T02:02:42;99657.16;;;18.92;87.81
30724;BME280;17473;52.286;20.930;2023-07-31T02:05:10;99644.69;;;18.96;87.63
30724;BME280;17473;52.286;20.930;2023-07-31T02:07:37;99643.00;;;18.84;88.02
30724;BME280;17473;52.286;20.930;2023-07-31T02:10:04;99655.63;;;18.71;88.44
30724;BME280;17473;52.286;20.930;2023-07-31T02:12:31;99655.56;;;18.77;88.76
30724;BME280;17473;52.286;20.930;2023-07-31T02:15:00;99658.34;;;18.66;89.26
30724;BME280;17473;52.286;20.930;2023-07-31T02:17:27;99655.59;;;18.72;89.14
30724;BME280;17473;52.286;20.930;2023-07-31T02:19:54;99667.09;;;18.82;88.94
30724;BME280;17473;52.286;20.930;2023-07-31T02:22:22;99659.97;;;18.81;88.63
30724;BME280;17473;52.286;20.930;2023-07-31T02:24:49;99663.69;;;18.68;89.17
30724;BME280;17473;52.286;20.930;2023-07-31T02:27:16;99661.06;;;18.63;90.10
30724;BME280;17473;52.286;20.930;2023-07-31T02:29:43;99664.66;;;18.57;90.38
30724;BME280;17473;52.286;20.930;2023-07-31T02:32:10;99662.78;;;18.69;90.18
30724;BME280;17473;52.286;20.930;2023-07-31T02:34:38;99659.31;;;18.60;90.41
30724;BME280;17473;52.286;20.930;2023-07-31T02:37:05;99670.03;;;18.59;90.30
30724;BME280;17473;52.286;20.930;2023-07-31T02:39:32;99680.81;;;18.48;91.27
30724;BME280;17473;52.286;20.930;2023-07-31T02:42:00;99681.75;;;18.42;91.60
30724;BME280;17473;52.286;20.930;2023-07-31T02:44:27;99679.88;;;18.52;91.59
30724;BME280;17473;52.286;20.930;2023-07-31T02:46:54;99667.53;;;18.40;92.11
30724;BME280;17473;52.286;20.930;2023-07-31T02:49:21;99677.19;;;18.55;91.76
30724;BME280;17473;52.286;20.930;2023-07-31T02:51:48;99668.31;;;18.50;91.66
30724;BME280;17473;52.286;20.930;2023-07-31T02:54:15;99670.03;;;18.56;91.75
30724;BME280;17473;52.286;20.930;2023-07-31T02:56:42;99663.72;;;18.63;91.37
30724;BME280;17473;52.286;20.930;2023-07-31T02:59:09;99673.56;;;18.63;91.06
30724;BME280;17473;52.286;20.930;2023-07-31T03:01:36;99673.59;;;18.58;91.74
30724;BME280;17473;52.286;20.930;2023-07-31T03:04:04;99669.94;;;18.65;91.35
30724;BME280;17473;52.286;20.930;2023-07-31T03:06:31;99670.72;;;18.76;90.61
30724;BME280;17473;52.286;20.930;2023-07-31T03:08:58;99672.44;;;18.81;89.81
30724;BME280;17473;52.286;20.930;2023-07-31T03:11:25;99662.75;;;18.72;90.66
30724;BME280;17473;52.286;20.930;2023-07-31T03:13:52;99673.28;;;18.84;89.78
30724;BME280;17473;52.286;20.930;2023-07-31T03:16:19;99672.50;;;18.77;89.99
30724;BME280;17473;52.286;20.930;2023-07-31T03:18:46;99671.56;;;18.78;90.10
30724;BME280;17473;52.286;20.930;2023-07-31T03:21:14;99676.91;;;18.78;89.79
30724;BME280;17473;52.286;20.930;2023-07-31T03:23:41;99677.78;;;18.81;89.45
30724;BME280;17473;52.286;20.930;2023-07-31T03:26:10;99685.78;;;18.84;89.35
30724;BME280;17473;52.286;20.930;2023-07-31T03:28:37;99684.97;;;18.77;89.77
30724;BME280;17473;52.286;20.930;2023-07-31T03:31:04;99685.84;;;18.79;89.59
30724;BME280;17473;52.286;20.930;2023-07-31T03:33:32;99688.50;;;18.81;89.54
30724;BME280;17473;52.286;20.930;2023-07-31T03:35:59;99687.50;;;18.92;89.08
30724;BME280;17473;52.286;20.930;2023-07-31T03:38:26;99694.63;;;18.92;89.04
30724;BME280;17473;52.286;20.930;2023-07-31T03:40:53;99703.56;;;18.89;89.04
30724;BME280;17473;52.286;20.930;2023-07-31T03:43:20;99698.13;;;18.97;88.62
30724;BME280;17473;52.286;20.930;2023-07-31T03:45:47;99698.16;;;18.99;88.36
30724;BME280;17473;52.286;20.930;2023-07-31T03:48:15;99707.94;;;19.00;87.94
30724;BME280;17473;52.286;20.930;2023-07-31T03:50:43;99701.72;;;18.96;88.05
30724;BME280;17473;52.286;20.930;2023-07-31T03:53:10;99707.84;;;19.07;87.14
30724;BME280;17473;52.286;20.930;2023-07-31T03:55:37;99703.53;;;18.94;87.96
30724;BME280;17473;52.286;20.930;2023-07-31T03:58:04;99710.53;;;19.06;88.10
30724;BME280;17473;52.286;20.930;2023-07-31T04:00:31;99708.72;;;19.10;87.32
30724;BME280;17473;52.286;20.930;2023-07-31T04:02:58;99710.50;;;19.07;86.90
30724;BME280;17473;52.286;20.930;2023-07-31T04:05:26;99713.19;;;19.09;86.92
30724;BME280;17473;52.286;20.930;2023-07-31T04:07:53;99712.19;;;19.15;86.78
30724;BME280;17473;52.286;20.930;2023-07-31T04:10:20;99720.28;;;19.10;86.97
30724;BME280;17473;52.286;20.930;2023-07-31T04:12:47;99717.59;;;19.13;86.59
30724;BME280;17473;52.286;20.930;2023-07-31T04:15:14;99716.75;;;19.08;86.89
30724;BME280;17473;52.286;20.930;2023-07-31T04:17:42;99725.69;;;19.05;86.74
30724;BME280;17473;52.286;20.930;2023-07-31T04:20:10;99728.34;;;19.05;86.41
30724;BME280;17473;52.286;20.930;2023-07-31T04:22:37;99730.09;;;19.11;86.52
30724;BME280;17473;52.286;20.930;2023-07-31T04:25:04;99726.63;;;19.04;86.92
30724;BME280;17473;52.286;20.930;2023-07-31T04:27:31;99727.47;;;19.06;86.17
30724;BME280;17473;52.286;20.930;2023-07-31T04:29:58;99735.53;;;19.03;87.06
30724;BME280;17473;52.286;20.930;2023-07-31T04:32:25;99734.69;;;19.00;86.58
30724;BME280;17473;52.286;20.930;2023-07-31T04:34:53;99736.34;;;19.12;85.96
30724;BME280;17473;52.286;20.930;2023-07-31T04:37:20;99733.59;;;19.16;85.81
30724;BME280;17473;52.286;20.930;2023-07-31T04:39:47;99743.34;;;19.22;85.07
30724;BME280;17473;52.286;20.930;2023-07-31T04:42:14;99744.13;;;19.32;84.46
30724;BME280;17473;52.286;20.930;2023-07-31T04:44:41;99746.00;;;19.23;84.37
30724;BME280;17473;52.286;20.930;2023-07-31T04:47:08;99748.56;;;19.33;83.99
30724;BME280;17473;52.286;20.930;2023-07-31T04:49:35;99742.31;;;19.34;84.18
30724;BME280;17473;52.286;20.930;2023-07-31T04:52:03;99740.47;;;19.37;83.66
30724;BME280;17473;52.286;20.930;2023-07-31T04:54:30;99745.81;;;19.39;83.33
30724;BME280;17473;52.286;20.930;2023-07-31T04:56:57;99734.19;;;19.40;83.28
30724;BME280;17473;52.286;20.930;2023-07-31T04:59:24;99740.44;;;19.42;83.04
30724;BME280;17473;52.286;20.930;2023-07-31T05:01:51;99742.25;;;19.38;83.37
30724;BME280;17473;52.286;20.930;2023-07-31T05:04:18;99739.34;;;19.57;82.45
30724;BME280;17473;52.286;20.930;2023-07-31T05:06:45;99744.78;;;19.49;82.61
30724;BME280;17473;52.286;20.930;2023-07-31T05:09:13;99751.72;;;19.66;82.08
30724;BME280;17473;52.286;20.930;2023-07-31T05:11:40;99752.63;;;19.66;81.99
30724;BME280;17473;52.286;20.930;2023-07-31T05:14:09;99754.34;;;19.69;81.48
30724;BME280;17473;52.286;20.930;2023-07-31T05:16:36;99751.72;;;19.67;81.84
30724;BME280;17473;52.286;20.930;2023-07-31T05:19:04;99751.66;;;19.70;81.62
30724;BME280;17473;52.286;20.930;2023-07-31T05:21:31;99760.47;;;19.79;81.41
30724;BME280;17473;52.286;20.930;2023-07-31T05:23:58;99754.25;;;19.75;81.40
30724;BME280;17473;52.286;20.930;2023-07-31T05:26:25;99756.75;;;19.92;79.92
30724;BME280;17473;52.286;20.930;2023-07-31T05:28:52;99760.38;;;19.83;80.46
30724;BME280;17473;52.286;20.930;2023-07-31T05:31:19;99755.75;;;19.99;79.62
30724;BME280;17473;52.286;20.930;2023-07-31T05:33:47;99760.06;;;20.08;79.41
30724;BME280;17473;52.286;20.930;2023-07-31T05:36:17;99761.75;;;20.14;78.84
30724;BME280;17473;52.286;20.930;2023-07-31T05:38:44;99769.84;;;20.12;78.67
30724;BME280;17473;52.286;20.930;2023-07-31T05:41:12;99777.09;;;20.04;79.01
30724;BME280;17473;52.286;20.930;2023-07-31T05:43:40;99774.41;;;20.07;78.99
30724;BME280;17473;52.286;20.930;2023-07-31T05:46:07;99773.19;;;20.27;78.06
30724;BME280;17473;52.286;20.930;2023-07-31T05:48:36;99774.19;;;20.20;77.86
30724;BME280;17473;52.286;20.930;2023-07-31T05:51:03;99773.25;;;20.24;77.81
30724;BME280;17473;52.286;20.930;2023-07-31T05:53:30;99777.03;;;20.09;78.33
30724;BME280;17473;52.286;20.930;2023-07-31T05:55:57;99786.53;;;20.30;77.15
30724;BME280;17473;52.286;20.930;2023-07-31T05:58:24;99782.13;;;20.27;77.23
30724;BME280;17473;52.286;20.930;2023-07-31T06:00:51;99787.25;;;20.41;76.97
30724;BME280;17473;52.286;20.930;2023-07-31T06:03:18;99796.09;;;20.48;76.99
30724;BME280;17473;52.286;20.930;2023-07-31T06:05:45;99791.25;;;20.69;76.30
30724;BME280;17473;52.286;20.930;2023-07-31T06:08:13;99786.97;;;20.58;75.49
30724;BME280;17473;52.286;20.930;2023-07-31T06:10:40;99796.78;;;20.59;75.26
30724;BME280;17473;52.286;20.930;2023-07-31T06:13:07;99802.94;;;20.66;74.83
30724;BME280;17473;52.286;20.930;2023-07-31T06:15:35;99801.13;;;20.68;74.87
30724;BME280;17473;52.286;20.930;2023-07-31T06:18:02;99801.03;;;20.73;74.54
30724;BME280;17473;52.286;20.930;2023-07-31T06:20:30;99802.50;;;20.38;75.56
30724;BME280;17473;52.286;20.930;2023-07-31T06:22:57;99805.13;;;20.41;75.75
30724;BME280;17473;52.286;20.930;2023-07-31T06:25:24;99804.34;;;20.34;75.84
30724;BME280;17473;52.286;20.930;2023-07-31T06:27:51;99800.16;;;20.16;76.97
30724;BME280;17473;52.286;20.930;2023-07-31T06:30:18;99798.13;;;20.32;76.10
30724;BME280;17473;52.286;20.930;2023-07-31T06:32:45;99802.88;;;20.14;76.88
30724;BME280;17473;52.286;20.930;2023-07-31T06:35:12;99800.13;;;20.17;77.01
30724;BME280;17473;52.286;20.930;2023-07-31T06:37:39;99813.44;;;20.22;76.45
30724;BME280;17473;52.286;20.930;2023-07-31T06:40:08;99792.88;;;20.24;76.40
30724;BME280;17473;52.286;20.930;2023-07-31T06:42:36;99809.03;;;20.20;76.88
30724;BME280;17473;52.286;20.930;2023-07-31T06:45:03;99805.59;;;20.08;77.57
30724;BME280;17473;52.286;20.930;2023-07-31T06:47:31;99811.75;;;20.18;77.09
30724;BME280;17473;52.286;20.930;2023-07-31T06:49:59;99813.44;;;20.22;77.10
30724;BME280;17473;52.286;20.930;2023-07-31T06:52:26;99804.53;;;20.22;77.07
30724;BME280;17473;52.286;20.930;2023-07-31T06:55:21;99811.50;;;20.33;76.63
30724;BME280;17473;52.286;20.930;2023-07-31T06:57:51;99807.50;;;20.61;75.35
30724;BME280;17473;52.286;20.930;2023-07-31T07:00:20;99813.56;;;20.72;74.85
30724;BME280;17473;52.286;20.930;2023-07-31T07:02:48;99813.50;;;20.77;74.09
30724;BME280;17473;52.286;20.930;2023-07-31T07:05:17;99806.38;;;20.76;74.21
30724;BME280;17473;52.286;20.930;2023-07-31T07:07:44;99812.34;;;20.92;74.01
30724;BME280;17473;52.286;20.930;2023-07-31T07:10:12;99810.50;;;21.44;72.11
30724;BME280;17473;52.286;20.930;2023-07-31T07:12:39;99806.78;;;23.71;63.37
30724;BME280;17473;52.286;20.930;2023-07-31T07:15:06;99800.63;;;26.06;54.73
30724;BME280;17473;52.286;20.930;2023-07-31T07:17:33;99811.94;;;27.26;50.24
30724;BME280;17473;52.286;20.930;2023-07-31T07:20:01;99805.19;;;27.36;50.00
30724;BME280;17473;52.286;20.930;2023-07-31T07:22:28;99802.78;;;28.46;46.66
30724;BME280;17473;52.286;20.930;2023-07-31T07:24:56;99810.94;;;29.18;44.82
30724;BME280;17473;52.286;20.930;2023-07-31T07:27:23;99802.34;;;30.74;41.69
30724;BME280;17473;52.286;20.930;2023-07-31T07:29:51;99801.56;;;30.87;40.11
30724;BME280;17473;52.286;20.930;2023-07-31T07:32:21;99799.50;;;29.11;42.73
30724;BME280;17473;52.286;20.930;2023-07-31T07:34:49;99796.22;;;29.22;43.05
30724;BME280;17473;52.286;20.930;2023-07-31T07:37:16;99794.53;;;29.19;43.27
30724;BME280;17473;52.286;20.930;2023-07-31T07:39:44;99797.78;;;30.11;41.90
30724;BME280;17473;52.286;20.930;2023-07-31T07:42:11;99787.94;;;30.87;39.28
30724;BME280;17473;52.286;20.930;2023-07-31T07:44:38;99787.16;;;30.54;39.35
30724;BME280;17473;52.286;20.930;2023-07-31T07:47:06;99799.44;;;30.13;40.79
30724;BME280;17473;52.286;20.930;2023-07-31T07:49:36;99796.97;;;29.59;41.32
30724;BME280;17473;52.286;20.930;2023-07-31T07:52:04;99790.88;;;29.20;42.36
30724;BME280;17473;52.286;20.930;2023-07-31T07:54:31;99799.03;;;29.72;41.35
30724;BME280;17473;52.286;20.930;2023-07-31T07:56:59;99803.22;;;29.61;41.73
30724;BME280;17473;52.286;20.930;2023-07-31T07:59:26;99805.94;;;29.77;41.20
30724;BME280;17473;52.286;20.930;2023-07-31T08:01:53;99807.00;;;30.24;40.21
30724;BME280;17473;52.286;20.930;2023-07-31T08:04:20;99795.41;;;30.53;40.03
30724;BME280;17473;52.286;20.930;2023-07-31T08:06:47;99799.41;;;30.78;39.26
30724;BME280;17473;52.286;20.930;2023-07-31T08:09:15;99785.25;;;30.71;39.49
30724;BME280;17473;52.286;20.930;2023-07-31T08:11:42;99793.47;;;31.01;38.88
30724;BME280;17473;52.286;20.930;2023-07-31T08:14:09;99790.81;;;31.00;38.33
30724;BME280;17473;52.286;20.930;2023-07-31T08:16:36;99785.59;;;31.71;37.11
30724;BME280;17473;52.286;20.930;2023-07-31T08:19:04;99777.16;;;32.17;36.12
30724;BME280;17473;52.286;20.930;2023-07-31T08:21:31;99786.25;;;32.45;35.71
30724;BME280;17473;52.286;20.930;2023-07-31T08:23:58;99790.88;;;33.51;34.10
30724;BME280;17473;52.286;20.930;2023-07-31T08:26:25;99788.75;;;34.06;33.16
30724;BME280;17473;52.286;20.930;2023-07-31T08:28:53;99784.97;;;33.70;33.44
30724;BME280;17473;52.286;20.930;2023-07-31T08:31:20;99788.41;;;33.98;32.93
30724;BME280;17473;52.286;20.930;2023-07-31T08:33:47;99790.31;;;33.59;33.11
30724;BME280;17473;52.286;20.930;2023-07-31T08:36:14;99791.31;;;33.58;32.82
30724;BME280;17473;52.286;20.930;2023-07-31T08:38:41;99786.91;;;33.68;32.24
30724;BME280;17473;52.286;20.930;2023-07-31T08:41:08;99796.75;;;33.32;32.87
30724;BME280;17473;52.286;20.930;2023-07-31T08:43:36;99784.72;;;33.73;32.29
30724;BME280;17473;52.286;20.930;2023-07-31T08:46:05;99800.63;;;33.55;31.71
30724;BME280;17473;52.286;20.930;2023-07-31T08:48:32;99789.75;;;33.79;31.65
30724;BME280;17473;52.286;20.930;2023-07-31T08:51:00;99789.75;;;34.29;31.37
30724;BME280;17473;52.286;20.930;2023-07-31T08:53:28;99796.16;;;34.54;31.29
30724;BME280;17473;52.286;20.930;2023-07-31T08:55:57;99785.34;;;34.02;31.41
30724;BME280;17473;52.286;20.930;2023-07-31T08:58:26;99786.78;;;33.82;31.81
30724;BME280;17473;52.286;20.930;2023-07-31T09:00:55;99780.06;;;34.12;30.97
30724;BME280;17473;52.286;20.930;2023-07-31T09:03:25;99785.25;;;34.04;31.14
30724;BME280;17473;52.286;20.930;2023-07-31T09:05:54;99785.19;;;33.54;31.99
30724;BME280;17473;52.286;20.930;2023-07-31T09:08:22;99785.56;;;33.22;32.38
30724;BME280;17473;52.286;20.930;2023-07-31T09:10:49;99791.81;;;33.24;31.99
30724;BME280;17473;52.286;20.930;2023-07-31T09:13:17;99783.25;;;32.35;32.36
30724;BME280;17473;52.286;20.930;2023-07-31T09:15:46;99785.56;;;32.41;32.45
30724;BME280;17473;52.286;20.930;2023-07-31T09:18:13;99787.59;;;32.10;32.54
30724;BME280;17473;52.286;20.930;2023-07-31T09:20:46;99776.19;;;31.17;34.00
30724;BME280;17473;52.286;20.930;2023-07-31T09:23:14;99784.09;;;31.65;33.86
30724;BME280;17473;52.286;20.930;2023-07-31T09:25:46;99783.75;;;31.86;33.72
30724;BME280;17473;52.286;20.930;2023-07-31T09:28:13;99779.22;;;32.13;33.27
30724;BME280;17473;52.286;20.930;2023-07-31T09:30:51;99770.28;;;32.39;32.85
30724;BME280;17473;52.286;20.930;2023-07-31T09:33:19;99782.03;;;31.25;32.62
30724;BME280;17473;52.286;20.930;2023-07-31T09:35:47;99771.31;;;32.09;31.82
30724;BME280;17473;52.286;20.930;2023-07-31T09:38:17;99782.25;;;31.94;32.22
30724;BME280;17473;52.286;20.930;2023-07-31T09:40:47;99782.19;;;31.67;33.10
30724;BME280;17473;52.286;20.930;2023-07-31T09:43:19;99785.19;;;31.91;32.41
30724;BME280;17473;52.286;20.930;2023-07-31T09:45:47;99781.84;;;32.42;31.66
30724;BME280;17473;52.286;20.930;2023-07-31T09:48:17;99786.75;;;32.37;32.04
30724;BME280;17473;52.286;20.930;2023-07-31T09:50:49;99785.41;;;32.15;31.96
30724;BME280;17473;52.286;20.930;2023-07-31T09:53:17;99785.94;;;32.08;31.86
30724;BME280;17473;52.286;20.930;2023-07-31T09:55:44;99791.44;;;31.79;31.96
30724;BME280;17473;52.286;20.930;2023-07-31T09:58:12;99792.00;;;31.98;31.25
30724;BME280;17473;52.286;20.930;2023-07-31T10:00:40;99790.63;;;32.06;30.87
30724;BME280;17473;52.286;20.930;2023-07-31T10:03:10;99782.59;;;32.31;30.58
30724;BME280;17473;52.286;20.930;2023-07-31T10:05:42;99789.41;;;32.10;30.03
30724;BME280;17473;52.286;20.930;2023-07-31T10:08:14;99776.56;;;32.12;29.51
30724;BME280;17473;52.286;20.930;2023-07-31T10:10:44;99780.78;;;32.03;29.81
30724;BME280;17473;52.286;20.930;2023-07-31T10:13:15;99778.47;;;32.39;29.27
30724;BME280;17473;52.286;20.930;2023-07-31T10:15:43;99775.88;;;32.08;28.82
30724;BME280;17473;52.286;20.930;2023-07-31T10:18:11;99775.66;;;30.33;30.41
30724;BME280;17473;52.286;20.930;2023-07-31T10:20:40;99781.16;;;30.94;30.55
30724;BME280;17473;52.286;20.930;2023-07-31T10:23:08;99788.72;;;30.74;31.05
30724;BME280;17473;52.286;20.930;2023-07-31T10:25:37;99787.72;;;31.36;30.89
30724;BME280;17473;52.286;20.930;2023-07-31T10:28:05;99776.75;;;31.67;30.07
30724;BME280;17473;52.286;20.930;2023-07-31T10:30:34;99777.09;;;31.32;29.41
30724;BME280;17473;52.286;20.930;2023-07-31T10:33:05;99772.56;;;31.16;29.51
30724;BME280;17473;52.286;20.930;2023-07-31T10:35:33;99777.72;;;31.21;30.29
30724;BME280;17473;52.286;20.930;2023-07-31T10:38:11;99782.63;;;31.30;30.55
30724;BME280;17473;52.286;20.930;2023-07-31T10:40:41;99790.31;;;31.24;30.64
30724;BME280;17473;52.286;20.930;2023-07-31T10:43:08;99780.69;;;30.87;31.35
30724;BME280;17473;52.286;20.930;2023-07-31T10:45:42;99779.22;;;30.96;30.93
30724;BME280;17473;52.286;20.930;2023-07-31T10:48:14;99776.03;;;31.04;29.63
30724;BME280;17473;52.286;20.930;2023-07-31T10:50:55;99773.47;;;30.86;29.63
30724;BME280;17473;52.286;20.930;2023-07-31T10:53:32;99776.88;;;30.90;29.47
30724;BME280;17473;52.286;20.930;2023-07-31T10:56:01;99770.00;;;30.68;30.40
30724;BME280;17473;52.286;20.930;2023-07-31T10:58:28;99774.59;;;30.82;30.64
30724;BME280;17473;52.286;20.930;2023-07-31T11:00:58;99772.00;;;31.11;30.61
30724;BME280;17473;52.286;20.930;2023-07-31T11:03:42;99766.00;;;30.59;31.50
30724;BME280;17473;52.286;20.930;2023-07-31T11:06:10;99764.94;;;31.07;30.63
30724;BME280;17473;52.286;20.930;2023-07-31T11:08:46;99771.66;;;31.01;30.84
30724;BME280;17473;52.286;20.930;2023-07-31T11:11:18;99765.16;;;30.73;31.36
30724;BME280;17473;52.286;20.930;2023-07-31T11:13:47;99769.13;;;29.88;30.97
30724;BME280;17473;52.286;20.930;2023-07-31T11:16:22;99768.63;;;29.97;30.28
30724;BME280;17473;52.286;20.930;2023-07-31T11:18:51;99777.94;;;30.41;30.27
30724;BME280;17473;52.286;20.930;2023-07-31T11:21:24;99775.28;;;30.39;30.45
30724;BME280;17473;52.286;20.930;2023-07-31T11:23:56;99768.16;;;30.69;29.89
30724;BME280;17473;52.286;20.930;2023-07-31T11:26:27;99763.53;;;30.39;30.15
30724;BME280;17473;52.286;20.930;2023-07-31T11:28:54;99769.19;;;30.66;30.10
30724;BME280;17473;52.286;20.930;2023-07-31T11:31:22;99767.38;;;30.51;30.40
30724;BME280;17473;52.286;20.930;2023-07-31T11:33:49;99764.09;;;29.97;31.15
30724;BME280;17473;52.286;20.930;2023-07-31T11:36:18;99765.13;;;30.11;30.88
30724;BME280;17473;52.286;20.930;2023-07-31T11:38:46;99766.19;;;30.08;30.91
30724;BME280;17473;52.286;20.930;2023-07-31T11:41:16;99772.84;;;30.19;30.80
30724;BME280;17473;52.286;20.930;2023-07-31T11:43:48;99769.34;;;30.01;30.52
30724;BME280;17473;52.286;20.930;2023-07-31T11:46:15;99766.53;;;29.52;30.79
30724;BME280;17473;52.286;20.930;2023-07-31T11:48:43;99764.19;;;29.62;30.82
30724;BME280;17473;52.286;20.930;2023-07-31T11:51:12;99763.69;;;29.72;30.84
30724;BME280;17473;52.286;20.930;2023-07-31T11:53:47;99759.81;;;29.76;30.96
30724;BME280;17473;52.286;20.930;2023-07-31T11:56:20;99759.72;;;28.93;31.78
30724;BME280;17473;52.286;20.930;2023-07-31T11:58:53;99756.59;;;29.35;31.71
30724;BME280;17473;52.286;20.930;2023-07-31T12:01:22;99754.84;;;29.50;32.45
30724;BME280;17473;52.286;20.930;2023-07-31T12:03:50;99736.03;;;29.79;32.38
30724;BME280;17473;52.286;20.930;2023-07-31T12:06:19;99759.31;;;29.18;32.59
30724;BME280;17473;52.286;20.930;2023-07-31T12:08:48;99747.69;;;29.49;32.86
30724;BME280;17473;52.286;20.930;2023-07-31T12:11:16;99744.53;;;29.57;32.26
30724;BME280;17473;52.286;20.930;2023-07-31T12:13:45;99747.50;;;29.52;32.90
30724;BME280;17473;52.286;20.930;2023-07-31T12:16:12;99757.22;;;29.23;32.56
30724;BME280;17473;52.286;20.930;2023-07-31T12:18:39;99749.34;;;29.01;32.94
30724;BME280;17473;52.286;20.930;2023-07-31T12:21:08;99749.50;;;28.98;33.33
30724;BME280;17473;52.286;20.930;2023-07-31T12:23:37;99743.56;;;29.07;32.60
30724;BME280;17473;52.286;20.930;2023-07-31T12:26:16;99744.38;;;28.92;32.87
30724;BME280;17473;52.286;20.930;2023-07-31T12:31:22;99737.69;;;29.50;33.26
30724;BME280;17473;52.286;20.930;2023-07-31T12:33:53;99726.66;;;28.84;34.11
30724;BME280;17473;52.286;20.930;2023-07-31T12:36:23;99730.66;;;28.95;34.06
30724;BME280;17473;52.286;20.930;2023-07-31T12:38:52;99725.75;;;28.66;33.94
30724;BME280;17473;52.286;20.930;2023-07-31T12:41:19;99725.19;;;28.60;34.43
30724;BME280;17473;52.286;20.930;2023-07-31T12:43:46;99712.41;;;28.44;34.55
30724;BME280;17473;52.286;20.930;2023-07-31T12:46:13;99716.63;;;28.50;34.18
30724;BME280;17473;52.286;20.930;2023-07-31T12:48:41;99710.16;;;28.52;34.44
30724;BME280;17473;52.286;20.930;2023-07-31T12:51:08;99706.94;;;28.26;34.97
30724;BME280;17473;52.286;20.930;2023-07-31T12:53:36;99700.47;;;28.29;35.33
30724;BME280;17473;52.286;20.930;2023-07-31T12:56:03;99702.34;;;28.46;34.36
30724;BME280;17473;52.286;20.930;2023-07-31T12:58:31;99696.44;;;28.01;35.28
30724;BME280;17473;52.286;20.930;2023-07-31T13:00:58;99691.34;;;28.32;34.72
30724;BME280;17473;52.286;20.930;2023-07-31T13:03:25;99702.34;;;28.46;34.93
30724;BME280;17473;52.286;20.930;2023-07-31T13:05:54;99682.06;;;27.99;35.22
30724;BME280;17473;52.286;20.930;2023-07-31T13:08:21;99686.19;;;28.25;35.20